createdAt,value
2022-12-04T00:01:18.852Z,12.80
2022-12-04T00:03:47.820Z,12.70
2022-12-04T00:06:17.943Z,15.25
2022-12-04T00:08:47.590Z,10.65
2022-12-04T00:11:17.831Z,9.52
2022-12-04T00:13:46.822Z,15.77
2022-12-04T00:16:20.160Z,10.40
2022-12-04T00:18:48.802Z,12.27
2022-12-04T00:21:18.771Z,20.60
2022-12-04T00:26:18.368Z,16.42
2022-12-04T00:28:47.258Z,11.13
2022-12-04T00:31:19.521Z,9.70
2022-12-04T00:33:48.361Z,9.82
2022-12-04T00:36:19.058Z,9.45
2022-12-04T00:38:48.597Z,14.75
2022-12-04T00:41:23.658Z,9.80
2022-12-04T00:43:52.153Z,15.95
2022-12-04T00:46:23.606Z,10.68
2022-12-04T00:48:53.428Z,11.32
2022-12-04T00:51:23.790Z,14.13
2022-12-04T00:53:52.890Z,15.52
2022-12-04T00:56:24.207Z,11.38
2022-12-04T00:58:54.059Z,18.63
2022-12-04T01:01:24.698Z,14.35
2022-12-04T01:03:53.547Z,14.50
2022-12-04T01:06:24.490Z,15.90
2022-12-04T01:08:54.115Z,7.93
2022-12-04T01:11:25.170Z,12.40
2022-12-04T01:13:53.915Z,15.85
2022-12-04T01:16:27.937Z,5.10
2022-12-04T01:18:56.358Z,14.02
2022-12-04T01:21:24.964Z,12.98
2022-12-04T01:23:53.516Z,20.50
2022-12-04T01:26:22.792Z,12.50
2022-12-04T01:28:51.216Z,10.02
2022-12-04T01:31:21.683Z,10.73
2022-12-04T01:33:52.225Z,18.95
2022-12-04T01:36:23.210Z,20.27
2022-12-04T01:38:52.234Z,11.27
2022-12-04T01:41:24.471Z,11.02
2022-12-04T01:44:14.425Z,10.52
2022-12-04T01:46:44.121Z,15.35
2022-12-04T01:49:19.466Z,15.93
2022-12-04T01:51:51.357Z,17.13
2022-12-04T01:54:28.762Z,15.05
2022-12-04T01:57:02.832Z,15.88
2022-12-04T01:59:34.875Z,24.02
2022-12-04T02:02:06.411Z,16.73
2022-12-04T02:04:37.402Z,14.48
2022-12-04T02:07:05.772Z,22.65
2022-12-04T02:09:35.667Z,21.13
2022-12-04T02:12:12.368Z,16.67
2022-12-04T02:14:53.057Z,18.30
2022-12-04T02:17:28.594Z,11.63
2022-12-04T02:20:19.018Z,19.48
2022-12-04T02:22:58.799Z,20.55
2022-12-04T02:25:33.810Z,18.65
2022-12-04T02:28:11.389Z,17.50
2022-12-04T02:30:42.547Z,18.58
2022-12-04T02:33:19.211Z,12.07
2022-12-04T02:38:24.053Z,16.67
2022-12-04T02:40:58.375Z,11.45
2022-12-04T02:43:33.820Z,11.50
2022-12-04T02:46:06.752Z,11.95
2022-12-04T02:48:39.398Z,19.15
2022-12-04T02:51:11.615Z,17.23
2022-12-04T02:53:45.100Z,12.00
2022-12-04T02:56:17.390Z,9.05
2022-12-04T02:58:50.838Z,11.23
2022-12-04T03:01:24.747Z,14.95
2022-12-04T03:03:57.438Z,16.33
2022-12-04T03:06:28.474Z,10.98
2022-12-04T03:09:01.459Z,16.70
2022-12-04T03:11:35.461Z,19.77
2022-12-04T03:14:12.042Z,12.32
2022-12-04T03:16:42.192Z,11.25
2022-12-04T03:19:16.701Z,20.88
2022-12-04T03:21:50.624Z,14.80
2022-12-04T03:24:24.701Z,13.18
2022-12-04T03:27:00.962Z,13.15
2022-12-04T03:29:35.482Z,10.95
2022-12-04T03:32:11.707Z,15.90
2022-12-04T03:34:51.984Z,21.65
2022-12-04T03:37:25.118Z,15.88
2022-12-04T03:39:58.783Z,10.57
2022-12-04T03:42:29.578Z,15.68
2022-12-04T03:45:04.262Z,12.48
2022-12-04T03:47:38.520Z,13.07
2022-12-04T03:50:11.108Z,20.33
2022-12-04T03:52:49.772Z,16.38
2022-12-04T03:55:24.860Z,7.95
2022-12-04T03:57:57.725Z,16.80
2022-12-04T04:00:27.651Z,22.38
2022-12-04T04:03:01.071Z,17.80
2022-12-04T04:05:31.696Z,11.52
2022-12-04T04:08:17.844Z,16.27
2022-12-04T04:10:48.287Z,8.25
2022-12-04T04:13:40.476Z,17.80
2022-12-04T04:16:31.802Z,10.43
2022-12-04T04:19:18.735Z,20.65
2022-12-04T04:22:07.654Z,10.52
2022-12-04T04:24:43.529Z,15.85
2022-12-04T04:27:12.262Z,20.55
2022-12-04T04:29:40.900Z,21.38
2022-12-04T04:32:15.388Z,10.15
2022-12-04T04:34:51.172Z,11.30
2022-12-04T04:37:28.084Z,12.93
2022-12-04T04:40:05.783Z,11.73
2022-12-04T04:42:40.307Z,9.13
2022-12-04T04:45:14.658Z,17.05
2022-12-04T04:47:48.494Z,11.00
2022-12-04T04:50:18.499Z,7.28
2022-12-04T04:52:51.139Z,19.77
2022-12-04T04:55:21.362Z,8.20
2022-12-04T04:57:50.138Z,21.42
2022-12-04T05:00:21.380Z,19.55
2022-12-04T05:02:51.441Z,13.95
2022-12-04T05:05:19.881Z,23.23
2022-12-04T05:07:48.432Z,16.50
2022-12-04T05:10:17.393Z,14.70
2022-12-04T05:12:46.260Z,17.05
2022-12-04T05:15:14.658Z,16.65
2022-12-04T05:17:43.493Z,16.42
2022-12-04T05:20:12.675Z,22.00
2022-12-04T05:22:41.276Z,17.00
2022-12-04T05:25:11.293Z,20.27
2022-12-04T05:30:09.486Z,20.38
2022-12-04T05:32:38.496Z,15.30
2022-12-04T05:35:11.015Z,14.48
2022-12-04T05:37:42.215Z,15.85
2022-12-04T05:40:11.332Z,12.68
2022-12-04T05:42:39.946Z,13.48
2022-12-04T05:45:09.597Z,15.40
2022-12-04T05:47:40.333Z,24.73
2022-12-04T05:50:11.319Z,10.63
2022-12-04T05:52:41.097Z,15.10
2022-12-04T05:55:09.983Z,17.42
2022-12-04T05:57:38.392Z,11.50
2022-12-04T06:00:08.056Z,20.85
2022-12-04T06:02:37.083Z,16.25
2022-12-04T06:05:06.273Z,16.92
2022-12-04T06:07:35.016Z,13.75
2022-12-04T06:10:05.392Z,7.68
2022-12-04T06:12:34.038Z,13.43
2022-12-04T06:15:02.272Z,13.88
2022-12-04T06:17:30.910Z,19.52
2022-12-04T06:20:00.584Z,19.42
2022-12-04T06:22:29.204Z,15.10
2022-12-04T06:24:57.462Z,22.50
2022-12-04T06:27:28.430Z,18.83
2022-12-04T06:29:57.390Z,13.52
2022-12-04T06:32:26.398Z,17.27
2022-12-04T06:34:55.838Z,20.27
2022-12-04T06:37:26.182Z,10.65
2022-12-04T06:39:55.022Z,14.07
2022-12-04T06:42:23.638Z,15.93
2022-12-04T06:44:53.521Z,18.50
2022-12-04T06:47:21.791Z,18.80
2022-12-04T06:49:51.700Z,17.85
2022-12-04T06:52:20.343Z,16.20
2022-12-04T06:54:48.652Z,10.27
2022-12-04T06:57:16.979Z,16.77
2022-12-04T06:59:45.451Z,20.13
2022-12-04T07:02:15.673Z,14.98
2022-12-04T07:04:44.578Z,13.15
2022-12-04T07:07:13.321Z,18.73
2022-12-04T07:09:46.868Z,16.48
2022-12-04T07:12:15.429Z,17.17
2022-12-04T07:14:43.987Z,13.82
2022-12-04T07:17:12.432Z,18.13
2022-12-04T07:19:42.276Z,15.40
2022-12-04T07:22:10.584Z,8.82
2022-12-04T07:24:38.943Z,17.20
2022-12-04T07:27:07.346Z,14.43
2022-12-04T07:29:36.060Z,18.67
2022-12-04T07:32:04.553Z,14.13
2022-12-04T07:34:35.669Z,7.28
2022-12-04T07:37:05.635Z,16.92
2022-12-04T07:39:34.654Z,11.68
2022-12-04T07:42:03.998Z,17.42
2022-12-04T07:44:32.698Z,13.10
2022-12-04T07:47:01.145Z,17.98
2022-12-04T07:49:29.523Z,11.75
2022-12-04T07:51:58.170Z,20.80
2022-12-04T07:54:28.474Z,12.15
2022-12-04T07:56:56.967Z,12.35
2022-12-04T07:59:25.537Z,14.98
2022-12-04T08:01:54.107Z,18.42
2022-12-04T08:04:22.503Z,17.77
2022-12-04T08:06:50.984Z,14.10
2022-12-04T08:09:19.677Z,17.17
2022-12-04T08:11:49.889Z,15.88
2022-12-04T08:14:18.614Z,16.83
2022-12-04T08:16:52.472Z,14.82
2022-12-04T08:19:22.105Z,12.30
2022-12-04T08:21:51.570Z,20.83
2022-12-04T08:24:20.503Z,15.95
2022-12-04T08:26:51.351Z,9.13
2022-12-04T08:29:32.717Z,30.00
2022-12-04T08:32:01.533Z,18.30
2022-12-04T08:34:30.274Z,16.58
2022-12-04T08:37:04.148Z,14.90
2022-12-04T08:39:32.973Z,15.88
2022-12-04T08:42:03.306Z,10.82
2022-12-04T08:44:32.670Z,14.25
2022-12-04T08:47:03.882Z,14.48
2022-12-04T08:49:32.430Z,12.95
2022-12-04T08:52:00.698Z,12.98
2022-12-04T08:54:34.449Z,12.43
2022-12-04T08:57:06.281Z,10.27
2022-12-04T08:59:34.808Z,11.45
2022-12-04T09:02:03.149Z,7.03
2022-12-04T09:04:31.960Z,16.95
2022-12-04T09:07:00.492Z,7.10
2022-12-04T09:09:28.840Z,13.02
2022-12-04T09:11:57.296Z,19.70
2022-12-04T09:14:27.027Z,19.23
2022-12-04T09:16:55.389Z,18.75
2022-12-04T09:19:23.829Z,18.40
2022-12-04T09:21:52.298Z,19.05
2022-12-04T09:24:22.787Z,14.35
2022-12-04T09:26:51.247Z,16.77
2022-12-04T09:29:19.580Z,17.20
2022-12-04T09:31:49.308Z,17.80
2022-12-04T09:34:17.812Z,13.02
2022-12-04T09:36:46.166Z,15.30
2022-12-04T09:39:14.646Z,13.65
2022-12-04T09:42:06.671Z,18.10
2022-12-04T09:44:41.235Z,21.95
2022-12-04T09:47:24.785Z,15.82
2022-12-04T09:49:58.902Z,15.00
2022-12-04T09:52:44.751Z,15.00
2022-12-04T09:55:19.637Z,16.75
2022-12-04T09:57:54.846Z,10.80
2022-12-04T16:36:19.157Z,6.28
2022-12-04T16:38:47.907Z,7.07
2022-12-04T16:41:21.440Z,8.02
2022-12-04T16:43:56.427Z,7.32
2022-12-04T16:46:26.592Z,5.72
2022-12-04T16:48:55.568Z,8.45
2022-12-04T16:51:26.865Z,8.38
2022-12-04T16:53:56.294Z,13.40
2022-12-04T16:56:24.673Z,8.50
2022-12-04T16:58:53.122Z,7.20
2022-12-04T17:01:25.364Z,8.80
2022-12-04T17:03:54.145Z,10.48
2022-12-04T17:06:22.644Z,9.25
2022-12-04T17:08:52.552Z,6.78
2022-12-04T17:11:20.906Z,8.60
2022-12-04T17:13:49.424Z,9.93
2022-12-04T17:16:19.954Z,9.50
2022-12-04T17:18:48.615Z,6.20
2022-12-04T17:21:16.960Z,6.65
2022-12-04T17:23:45.531Z,6.45
2022-12-04T17:26:16.621Z,7.40
2022-12-04T17:28:45.038Z,6.20
2022-12-04T17:31:16.385Z,6.93
2022-12-04T19:30:47.989Z,3.83
2022-12-04T19:35:46.639Z,3.47
2022-12-04T19:52:12.068Z,5.40
2022-12-04T19:54:40.792Z,7.93
2022-12-04T19:57:10.196Z,6.13
2022-12-04T19:59:43.096Z,4.28
2022-12-04T20:14:40.048Z,6.38
2022-12-04T20:19:37.487Z,5.40
2022-12-04T20:22:06.026Z,6.22
2022-12-04T20:24:34.483Z,6.57
2022-12-04T20:27:04.379Z,7.00
2022-12-04T20:29:33.351Z,7.57
2022-12-04T20:32:03.146Z,8.02
2022-12-04T20:37:00.325Z,6.20
2022-12-04T20:39:29.821Z,6.18
2022-12-04T20:41:58.543Z,6.65
2022-12-04T20:44:26.960Z,8.57
2022-12-04T20:46:55.434Z,6.63
2022-12-04T20:49:25.147Z,5.15
2022-12-04T20:51:53.752Z,6.30
2022-12-04T20:54:23.755Z,6.47
2022-12-04T20:56:53.417Z,9.05
2022-12-04T21:01:51.685Z,8.15
2022-12-04T21:04:21.119Z,5.82
2022-12-04T21:06:51.195Z,12.20
2022-12-04T21:09:22.888Z,6.95
2022-12-04T21:11:52.986Z,8.77
2022-12-04T21:14:46.207Z,7.57
2022-12-04T21:17:18.777Z,8.90
2022-12-04T21:19:49.219Z,6.18
2022-12-04T21:22:20.507Z,5.82
2022-12-04T21:24:49.210Z,8.82
2022-12-04T21:27:21.134Z,4.75
2022-12-04T21:29:50.337Z,4.45
2022-12-04T21:32:20.389Z,4.50
2022-12-04T21:34:48.979Z,4.70
2022-12-04T21:37:18.852Z,2.35
2022-12-04T21:39:47.880Z,3.17
2022-12-04T21:42:34.639Z,4.32
2022-12-04T21:45:05.996Z,1.92
2022-12-04T21:47:34.771Z,6.35
2022-12-04T21:50:03.031Z,6.45
2022-12-04T21:52:32.995Z,5.80
2022-12-04T21:57:30.098Z,4.88
2022-12-04T21:59:58.550Z,4.53
2022-12-04T22:02:27.433Z,6.85
2022-12-04T22:04:55.817Z,9.43
2022-12-04T22:07:24.012Z,3.90
2022-12-04T22:09:53.777Z,6.38
2022-12-04T22:15:11.213Z,5.70
2022-12-04T22:17:39.704Z,6.20
2022-12-04T22:20:09.518Z,8.00
2022-12-04T22:22:38.031Z,4.82
2022-12-04T22:25:08.379Z,5.95
2022-12-04T22:27:37.142Z,4.15
2022-12-04T22:30:08.695Z,3.83
2022-12-04T22:32:37.059Z,3.80
2022-12-04T22:35:06.125Z,9.63
2022-12-04T22:37:42.673Z,8.27
2022-12-04T22:40:15.720Z,8.95
2022-12-04T22:42:46.453Z,6.18
2022-12-04T22:45:14.931Z,3.65
2022-12-04T22:47:43.318Z,7.57
2022-12-04T22:50:13.034Z,3.40
2022-12-04T22:52:42.597Z,3.47
2022-12-04T22:55:10.976Z,7.45
2022-12-04T22:57:40.779Z,16.00
2022-12-04T23:00:10.469Z,7.25
2022-12-04T23:02:39.070Z,7.95
2022-12-04T23:05:08.147Z,9.02
2022-12-04T23:07:37.449Z,7.97
2022-12-04T23:10:07.511Z,7.85
2022-12-04T23:12:36.180Z,7.35
2022-12-04T23:15:06.774Z,6.57
2022-12-04T23:17:35.230Z,9.63
2022-12-04T23:20:03.499Z,4.80
2022-12-04T23:22:32.008Z,5.55
2022-12-04T23:25:00.275Z,2.95
2022-12-04T23:27:28.510Z,8.77
2022-12-04T23:29:56.734Z,7.13
2022-12-04T23:32:26.502Z,5.63
2022-12-04T23:34:54.643Z,9.73
2022-12-04T23:37:22.931Z,9.80
2022-12-04T23:39:51.201Z,5.63
2022-12-04T23:42:19.420Z,3.72
2022-12-04T23:44:47.756Z,3.05
2022-12-04T23:47:16.149Z,4.10
2022-12-04T23:49:45.717Z,5.43
2022-12-04T23:52:14.031Z,2.20
2022-12-04T23:54:42.221Z,9.57
2022-12-04T23:57:10.480Z,6.90
2022-12-04T23:59:39.351Z,5.10
